sensor_id;sensor_type;location;lat;lon;timestamp;P1;durP1;ratioP1;P2;durP2;ratioP2
55292;SDS011;41157;53.560;10.098;2023-09-08T00:02:06;4.60;;;3.38;;
55292;SDS011;41157;53.560;10.098;2023-09-08T00:04:33;5.80;;;3.60;;
55292;SDS011;41157;53.560;10.098;2023-09-08T00:07:00;5.07;;;3.67;;
55292;SDS011;41157;53.560;10.098;2023-09-08T00:09:29;5.13;;;3.70;;
55292;SDS011;41157;53.560;10.098;2023-09-08T00:11:56;6.97;;;4.00;;
55292;SDS011;41157;53.560;10.098;2023-09-08T00:14:24;7.00;;;4.18;;
55292;SDS011;41157;53.560;10.098;2023-09-08T00:16:53;6.63;;;4.20;;
55292;SDS011;41157;53.560;10.098;2023-09-08T00:19:20;4.70;;;4.15;;
55292;SDS011;41157;53.560;10.098;2023-09-08T00:21:48;4.53;;;3.60;;
55292;SDS011;41157;53.560;10.098;2023-09-08T00:24:16;4.80;;;3.70;;
55292;SDS011;41157;53.560;10.098;2023-09-08T00:26:44;4.13;;;3.72;;
55292;SDS011;41157;53.560;10.098;2023-09-08T00:29:12;5.82;;;3.83;;
55292;SDS011;41157;53.560;10.098;2023-09-08T00:31:39;7.30;;;3.90;;
55292;SDS011;41157;53.560;10.098;2023-09-08T00:34:07;10.77;;;4.35;;
55292;SDS011;41157;53.560;10.098;2023-09-08T00:36:34;11.23;;;3.88;;
55292;SDS011;41157;53.560;10.098;2023-09-08T00:39:02;5.72;;;4.00;;
55292;SDS011;41157;53.560;10.098;2023-09-08T00:41:29;5.68;;;4.13;;
55292;SDS011;41157;53.560;10.098;2023-09-08T00:43:57;7.40;;;3.97;;
55292;SDS011;41157;53.560;10.098;2023-09-08T00:46:24;4.82;;;3.92;;
55292;SDS011;41157;53.560;10.098;2023-09-08T00:48:52;5.18;;;3.95;;
55292;SDS011;41157;53.560;10.098;2023-09-08T00:51:21;4.40;;;3.70;;
55292;SDS011;41157;53.560;10.098;2023-09-08T00:53:48;6.10;;;3.65;;
55292;SDS011;41157;53.560;10.098;2023-09-08T00:56:16;5.53;;;4.55;;
55292;SDS011;41157;53.560;10.098;2023-09-08T00:58:43;7.45;;;4.05;;
55292;SDS011;41157;53.560;10.098;2023-09-08T01:01:10;6.85;;;4.13;;
55292;SDS011;41157;53.560;10.098;2023-09-08T01:03:38;6.38;;;3.85;;
55292;SDS011;41157;53.560;10.098;2023-09-08T01:06:05;5.30;;;4.20;;
55292;SDS011;41157;53.560;10.098;2023-09-08T01:08:35;5.32;;;4.03;;
55292;SDS011;41157;53.560;10.098;2023-09-08T01:11:02;7.97;;;4.20;;
55292;SDS011;41157;53.560;10.098;2023-09-08T01:13:30;5.40;;;3.85;;
55292;SDS011;41157;53.560;10.098;2023-09-08T01:15:57;7.50;;;4.18;;
55292;SDS011;41157;53.560;10.098;2023-09-08T01:18:24;5.20;;;3.92;;
55292;SDS011;41157;53.560;10.098;2023-09-08T01:20:57;5.30;;;3.95;;
55292;SDS011;41157;53.560;10.098;2023-09-08T01:23:32;4.88;;;4.07;;
55292;SDS011;41157;53.560;10.098;2023-09-08T01:26:03;5.63;;;4.03;;
55292;SDS011;41157;53.560;10.098;2023-09-08T01:28:31;6.05;;;4.20;;
55292;SDS011;41157;53.560;10.098;2023-09-08T01:30:59;8.30;;;4.55;;
55292;SDS011;41157;53.560;10.098;2023-09-08T01:33:27;5.07;;;4.28;;
55292;SDS011;41157;53.560;10.098;2023-09-08T01:35:54;7.93;;;4.20;;
55292;SDS011;41157;53.560;10.098;2023-09-08T01:38:21;8.48;;;3.97;;
55292;SDS011;41157;53.560;10.098;2023-09-08T01:40:48;6.05;;;4.15;;
55292;SDS011;41157;53.560;10.098;2023-09-08T01:43:17;5.95;;;4.15;;
55292;SDS011;41157;53.560;10.098;2023-09-08T01:45:45;7.78;;;4.18;;
55292;SDS011;41157;53.560;10.098;2023-09-08T01:48:12;5.82;;;5.03;;
55292;SDS011;41157;53.560;10.098;2023-09-08T01:50:39;6.22;;;4.65;;
55292;SDS011;41157;53.560;10.098;2023-09-08T01:53:06;5.38;;;4.15;;
55292;SDS011;41157;53.560;10.098;2023-09-08T01:55:33;5.40;;;4.70;;
55292;SDS011;41157;53.560;10.098;2023-09-08T01:58:00;4.55;;;3.80;;
55292;SDS011;41157;53.560;10.098;2023-09-08T02:00:29;5.32;;;4.22;;
55292;SDS011;41157;53.560;10.098;2023-09-08T02:02:57;9.00;;;4.40;;
55292;SDS011;41157;53.560;10.098;2023-09-08T02:05:24;6.03;;;3.85;;
55292;SDS011;41157;53.560;10.098;2023-09-08T02:07:51;5.60;;;4.13;;
55292;SDS011;41157;53.560;10.098;2023-09-08T02:10:20;6.65;;;4.50;;
55292;SDS011;41157;53.560;10.098;2023-09-08T02:12:48;5.18;;;4.00;;
55292;SDS011;41157;53.560;10.098;2023-09-08T02:15:15;5.57;;;4.30;;
55292;SDS011;41157;53.560;10.098;2023-09-08T02:17:43;7.47;;;4.68;;
55292;SDS011;41157;53.560;10.098;2023-09-08T02:20:11;5.78;;;4.40;;
55292;SDS011;41157;53.560;10.098;2023-09-08T02:22:38;7.78;;;4.93;;
55292;SDS011;41157;53.560;10.098;2023-09-08T02:25:07;9.55;;;4.47;;
55292;SDS011;41157;53.560;10.098;2023-09-08T02:27:35;7.05;;;4.53;;
55292;SDS011;41157;53.560;10.098;2023-09-08T02:30:02;9.25;;;4.65;;
55292;SDS011;41157;53.560;10.098;2023-09-08T02:32:29;5.65;;;4.50;;
55292;SDS011;41157;53.560;10.098;2023-09-08T02:34:58;5.50;;;4.25;;
55292;SDS011;41157;53.560;10.098;2023-09-08T02:37:25;5.70;;;4.38;;
55292;SDS011;41157;53.560;10.098;2023-09-08T02:39:52;6.88;;;4.78;;
55292;SDS011;41157;53.560;10.098;2023-09-08T02:42:20;7.38;;;5.05;;
55292;SDS011;41157;53.560;10.098;2023-09-08T02:44:47;5.88;;;4.55;;
55292;SDS011;41157;53.560;10.098;2023-09-08T02:47:14;6.10;;;4.72;;
55292;SDS011;41157;53.560;10.098;2023-09-08T02:49:41;6.22;;;4.55;;
55292;SDS011;41157;53.560;10.098;2023-09-08T02:52:10;8.73;;;4.90;;
55292;SDS011;41157;53.560;10.098;2023-09-08T02:54:37;6.72;;;4.90;;
55292;SDS011;41157;53.560;10.098;2023-09-08T02:57:04;5.40;;;4.88;;
55292;SDS011;41157;53.560;10.098;2023-09-08T02:59:32;6.13;;;4.60;;
55292;SDS011;41157;53.560;10.098;2023-09-08T03:01:59;9.23;;;4.75;;
55292;SDS011;41157;53.560;10.098;2023-09-08T03:04:27;6.47;;;4.28;;
55292;SDS011;41157;53.560;10.098;2023-09-08T03:06:54;7.55;;;5.28;;
55292;SDS011;41157;53.560;10.098;2023-09-08T03:09:23;12.07;;;4.10;;
55292;SDS011;41157;53.560;10.098;2023-09-08T03:11:50;5.13;;;4.32;;
55292;SDS011;41157;53.560;10.098;2023-09-08T03:14:17;8.82;;;5.47;;
55292;SDS011;41157;53.560;10.098;2023-09-08T03:16:44;5.90;;;4.80;;
55292;SDS011;41157;53.560;10.098;2023-09-08T03:19:11;7.10;;;5.45;;
55292;SDS011;41157;53.560;10.098;2023-09-08T03:21:38;6.82;;;4.85;;
55292;SDS011;41157;53.560;10.098;2023-09-08T03:24:06;6.53;;;4.70;;
55292;SDS011;41157;53.560;10.098;2023-09-08T03:26:38;6.63;;;5.18;;
55292;SDS011;41157;53.560;10.098;2023-09-08T03:29:07;7.32;;;5.22;;
55292;SDS011;41157;53.560;10.098;2023-09-08T03:31:35;7.78;;;5.22;;
55292;SDS011;41157;53.560;10.098;2023-09-08T03:34:03;7.68;;;5.60;;
55292;SDS011;41157;53.560;10.098;2023-09-08T03:36:30;7.43;;;5.20;;
55292;SDS011;41157;53.560;10.098;2023-09-08T03:39:01;7.93;;;5.28;;
55292;SDS011;41157;53.560;10.098;2023-09-08T03:41:30;7.53;;;4.82;;
55292;SDS011;41157;53.560;10.098;2023-09-08T03:43:59;13.45;;;5.80;;
55292;SDS011;41157;53.560;10.098;2023-09-08T03:46:29;6.28;;;5.13;;
55292;SDS011;41157;53.560;10.098;2023-09-08T03:48:57;7.43;;;5.10;;
55292;SDS011;41157;53.560;10.098;2023-09-08T03:51:26;10.02;;;5.18;;
55292;SDS011;41157;53.560;10.098;2023-09-08T03:53:54;6.25;;;5.25;;
55292;SDS011;41157;53.560;10.098;2023-09-08T03:56:22;8.77;;;5.00;;
55292;SDS011;41157;53.560;10.098;2023-09-08T03:58:49;6.70;;;5.30;;
55292;SDS011;41157;53.560;10.098;2023-09-08T04:01:18;11.50;;;6.05;;
55292;SDS011;41157;53.560;10.098;2023-09-08T04:03:46;10.25;;;5.55;;
55292;SDS011;41157;53.560;10.098;2023-09-08T04:06:14;6.97;;;5.07;;
55292;SDS011;41157;53.560;10.098;2023-09-08T04:08:42;10.30;;;5.43;;
55292;SDS011;41157;53.560;10.098;2023-09-08T04:11:11;6.50;;;5.35;;
55292;SDS011;41157;53.560;10.098;2023-09-08T04:13:39;12.02;;;5.07;;
55292;SDS011;41157;53.560;10.098;2023-09-08T04:16:06;6.78;;;5.10;;
55292;SDS011;41157;53.560;10.098;2023-09-08T04:18:34;8.05;;;5.55;;
55292;SDS011;41157;53.560;10.098;2023-09-08T04:21:02;6.45;;;4.90;;
55292;SDS011;41157;53.560;10.098;2023-09-08T04:23:31;6.07;;;5.20;;
55292;SDS011;41157;53.560;10.098;2023-09-08T04:25:58;7.75;;;5.28;;
55292;SDS011;41157;53.560;10.098;2023-09-08T04:28:27;7.30;;;5.60;;
55292;SDS011;41157;53.560;10.098;2023-09-08T04:30:55;5.88;;;5.20;;
55292;SDS011;41157;53.560;10.098;2023-09-08T04:33:24;8.23;;;5.18;;
55292;SDS011;41157;53.560;10.098;2023-09-08T04:35:53;7.72;;;5.38;;
55292;SDS011;41157;53.560;10.098;2023-09-08T04:38:22;9.02;;;5.80;;
55292;SDS011;41157;53.560;10.098;2023-09-08T04:40:51;7.15;;;5.65;;
55292;SDS011;41157;53.560;10.098;2023-09-08T04:43:19;7.53;;;5.50;;
55292;SDS011;41157;53.560;10.098;2023-09-08T04:45:46;8.52;;;5.93;;
55292;SDS011;41157;53.560;10.098;2023-09-08T04:48:16;12.05;;;5.28;;
55292;SDS011;41157;53.560;10.098;2023-09-08T04:50:45;9.65;;;5.25;;
55292;SDS011;41157;53.560;10.098;2023-09-08T04:53:15;10.25;;;5.60;;
55292;SDS011;41157;53.560;10.098;2023-09-08T04:55:43;11.63;;;5.22;;
55292;SDS011;41157;53.560;10.098;2023-09-08T04:58:11;10.95;;;5.38;;
55292;SDS011;41157;53.560;10.098;2023-09-08T05:00:39;8.68;;;5.00;;
55292;SDS011;41157;53.560;10.098;2023-09-08T05:03:07;8.18;;;6.07;;
55292;SDS011;41157;53.560;10.098;2023-09-08T05:05:35;7.57;;;5.47;;
55292;SDS011;41157;53.560;10.098;2023-09-08T05:08:02;11.00;;;5.75;;
55292;SDS011;41157;53.560;10.098;2023-09-08T05:10:31;8.63;;;5.55;;
55292;SDS011;41157;53.560;10.098;2023-09-08T05:13:00;11.38;;;5.40;;
55292;SDS011;41157;53.560;10.098;2023-09-08T05:15:27;7.15;;;5.55;;
55292;SDS011;41157;53.560;10.098;2023-09-08T05:17:55;8.35;;;5.80;;
55292;SDS011;41157;53.560;10.098;2023-09-08T05:20:22;9.13;;;5.53;;
55292;SDS011;41157;53.560;10.098;2023-09-08T05:22:49;7.00;;;5.28;;
55292;SDS011;41157;53.560;10.098;2023-09-08T05:25:16;7.70;;;5.35;;
55292;SDS011;41157;53.560;10.098;2023-09-08T05:27:45;8.65;;;5.57;;
55292;SDS011;41157;53.560;10.098;2023-09-08T05:30:14;6.72;;;5.28;;
55292;SDS011;41157;53.560;10.098;2023-09-08T05:32:41;10.82;;;5.85;;
55292;SDS011;41157;53.560;10.098;2023-09-08T05:35:10;7.78;;;5.78;;
55292;SDS011;41157;53.560;10.098;2023-09-08T05:37:37;7.88;;;5.57;;
55292;SDS011;41157;53.560;10.098;2023-09-08T05:40:05;9.90;;;5.75;;
55292;SDS011;41157;53.560;10.098;2023-09-08T05:42:32;10.18;;;5.13;;
55292;SDS011;41157;53.560;10.098;2023-09-08T05:45:01;6.93;;;5.57;;
55292;SDS011;41157;53.560;10.098;2023-09-08T05:47:28;10.85;;;5.95;;
55292;SDS011;41157;53.560;10.098;2023-09-08T05:49:55;8.80;;;5.88;;
55292;SDS011;41157;53.560;10.098;2023-09-08T05:52:22;11.30;;;5.97;;
55292;SDS011;41157;53.560;10.098;2023-09-08T05:54:49;11.10;;;5.38;;
55292;SDS011;41157;53.560;10.098;2023-09-08T05:57:17;8.38;;;5.65;;
55292;SDS011;41157;53.560;10.098;2023-09-08T05:59:44;11.45;;;6.22;;
55292;SDS011;41157;53.560;10.098;2023-09-08T06:02:13;8.55;;;6.18;;
55292;SDS011;41157;53.560;10.098;2023-09-08T06:04:40;7.75;;;5.78;;
55292;SDS011;41157;53.560;10.098;2023-09-08T06:07:07;7.40;;;5.63;;
55292;SDS011;41157;53.560;10.098;2023-09-08T06:09:35;8.98;;;5.72;;
55292;SDS011;41157;53.560;10.098;2023-09-08T06:12:02;11.68;;;6.70;;
55292;SDS011;41157;53.560;10.098;2023-09-08T06:14:29;11.95;;;5.47;;
55292;SDS011;41157;53.560;10.098;2023-09-08T06:16:57;7.88;;;5.63;;
55292;SDS011;41157;53.560;10.098;2023-09-08T06:19:25;13.75;;;5.90;;
55292;SDS011;41157;53.560;10.098;2023-09-08T06:21:52;10.18;;;6.40;;
55292;SDS011;41157;53.560;10.098;2023-09-08T06:24:20;12.57;;;5.63;;
55292;SDS011;41157;53.560;10.098;2023-09-08T06:26:47;9.80;;;6.05;;
55292;SDS011;41157;53.560;10.098;2023-09-08T06:29:15;10.65;;;5.70;;
55292;SDS011;41157;53.560;10.098;2023-09-08T06:31:43;7.03;;;5.47;;
55292;SDS011;41157;53.560;10.098;2023-09-08T06:34:10;8.20;;;5.55;;
55292;SDS011;41157;53.560;10.098;2023-09-08T06:36:38;12.90;;;6.38;;
55292;SDS011;41157;53.560;10.098;2023-09-08T06:39:06;14.32;;;5.85;;
55292;SDS011;41157;53.560;10.098;2023-09-08T06:41:33;14.40;;;5.60;;
55292;SDS011;41157;53.560;10.098;2023-09-08T06:44:00;11.45;;;5.20;;
55292;SDS011;41157;53.560;10.098;2023-09-08T06:46:27;11.05;;;5.47;;
55292;SDS011;41157;53.560;10.098;2023-09-08T06:48:55;9.75;;;5.53;;
55292;SDS011;41157;53.560;10.098;2023-09-08T06:51:22;9.13;;;6.22;;
55292;SDS011;41157;53.560;10.098;2023-09-08T06:53:55;8.88;;;5.57;;
55292;SDS011;41157;53.560;10.098;2023-09-08T06:56:22;7.10;;;5.45;;
55292;SDS011;41157;53.560;10.098;2023-09-08T06:58:53;11.20;;;5.82;;
55292;SDS011;41157;53.560;10.098;2023-09-08T07:01:20;13.90;;;6.15;;
55292;SDS011;41157;53.560;10.098;2023-09-08T07:03:47;10.52;;;6.30;;
55292;SDS011;41157;53.560;10.098;2023-09-08T07:06:15;11.15;;;5.85;;
55292;SDS011;41157;53.560;10.098;2023-09-08T07:08:42;10.23;;;5.30;;
55292;SDS011;41157;53.560;10.098;2023-09-08T07:11:11;7.72;;;5.82;;
55292;SDS011;41157;53.560;10.098;2023-09-08T07:13:38;8.80;;;5.28;;
55292;SDS011;41157;53.560;10.098;2023-09-08T07:16:05;7.97;;;4.75;;
55292;SDS011;41157;53.560;10.098;2023-09-08T07:18:32;10.18;;;5.78;;
55292;SDS011;41157;53.560;10.098;2023-09-08T07:21:01;7.20;;;5.25;;
55292;SDS011;41157;53.560;10.098;2023-09-08T07:23:28;6.55;;;4.93;;
55292;SDS011;41157;53.560;10.098;2023-09-08T07:25:55;6.15;;;5.13;;
55292;SDS011;41157;53.560;10.098;2023-09-08T07:28:24;6.90;;;4.63;;
55292;SDS011;41157;53.560;10.098;2023-09-08T07:30:51;9.30;;;5.25;;
55292;SDS011;41157;53.560;10.098;2023-09-08T07:33:18;6.53;;;4.95;;
55292;SDS011;41157;53.560;10.098;2023-09-08T07:35:47;6.45;;;4.95;;
55292;SDS011;41157;53.560;10.098;2023-09-08T07:38:14;8.82;;;5.25;;
55292;SDS011;41157;53.560;10.098;2023-09-08T07:40:41;10.27;;;4.78;;
55292;SDS011;41157;53.560;10.098;2023-09-08T07:43:08;7.80;;;5.18;;
55292;SDS011;41157;53.560;10.098;2023-09-08T07:45:37;10.30;;;5.35;;
55292;SDS011;41157;53.560;10.098;2023-09-08T07:48:05;5.25;;;4.68;;
55292;SDS011;41157;53.560;10.098;2023-09-08T07:50:32;7.22;;;5.35;;
55292;SDS011;41157;53.560;10.098;2023-09-08T07:52:59;6.55;;;5.10;;
55292;SDS011;41157;53.560;10.098;2023-09-08T07:55:26;7.25;;;5.10;;
55292;SDS011;41157;53.560;10.098;2023-09-08T07:57:54;7.13;;;5.03;;
55292;SDS011;41157;53.560;10.098;2023-09-08T08:00:22;7.18;;;5.05;;
55292;SDS011;41157;53.560;10.098;2023-09-08T08:02:51;7.75;;;5.43;;
55292;SDS011;41157;53.560;10.098;2023-09-08T08:05:18;7.13;;;5.13;;
55292;SDS011;41157;53.560;10.098;2023-09-08T08:07:45;7.82;;;4.95;;
55292;SDS011;41157;53.560;10.098;2023-09-08T08:10:13;6.07;;;4.88;;
55292;SDS011;41157;53.560;10.098;2023-09-08T08:12:42;7.63;;;4.93;;
55292;SDS011;41157;53.560;10.098;2023-09-08T08:15:11;7.05;;;5.25;;
55292;SDS011;41157;53.560;10.098;2023-09-08T08:17:38;9.85;;;4.82;;
55292;SDS011;41157;53.560;10.098;2023-09-08T08:20:07;5.90;;;4.55;;
55292;SDS011;41157;53.560;10.098;2023-09-08T08:22:36;8.60;;;4.43;;
55292;SDS011;41157;53.560;10.098;2023-09-08T08:25:04;10.95;;;5.30;;
55292;SDS011;41157;53.560;10.098;2023-09-08T08:27:31;7.43;;;5.25;;
55292;SDS011;41157;53.560;10.098;2023-09-08T08:29:59;7.22;;;4.45;;
55292;SDS011;41157;53.560;10.098;2023-09-08T08:32:26;6.68;;;4.60;;
55292;SDS011;41157;53.560;10.098;2023-09-08T08:34:53;4.78;;;4.07;;
55292;SDS011;41157;53.560;10.098;2023-09-08T08:37:21;6.20;;;4.70;;
55292;SDS011;41157;53.560;10.098;2023-09-08T08:39:48;9.40;;;4.95;;
55292;SDS011;41157;53.560;10.098;2023-09-08T08:42:15;9.70;;;4.18;;
55292;SDS011;41157;53.560;10.098;2023-09-08T08:44:44;6.45;;;4.45;;
55292;SDS011;41157;53.560;10.098;2023-09-08T08:47:11;6.22;;;4.70;;
55292;SDS011;41157;53.560;10.098;2023-09-08T08:49:41;5.40;;;4.35;;
55292;SDS011;41157;53.560;10.098;2023-09-08T08:52:11;7.80;;;4.25;;
55292;SDS011;41157;53.560;10.098;2023-09-08T08:54:40;5.50;;;4.80;;
55292;SDS011;41157;53.560;10.098;2023-09-08T08:57:08;11.80;;;4.45;;
55292;SDS011;41157;53.560;10.098;2023-09-08T08:59:35;6.55;;;4.25;;
55292;SDS011;41157;53.560;10.098;2023-09-08T09:02:03;9.80;;;4.55;;
55292;SDS011;41157;53.560;10.098;2023-09-08T09:04:30;7.93;;;4.43;;
55292;SDS011;41157;53.560;10.098;2023-09-08T09:06:58;8.32;;;4.38;;
55292;SDS011;41157;53.560;10.098;2023-09-08T09:09:25;8.75;;;4.10;;
55292;SDS011;41157;53.560;10.098;2023-09-08T09:11:53;8.45;;;4.32;;
55292;SDS011;41157;53.560;10.098;2023-09-08T09:14:20;12.57;;;4.25;;
55292;SDS011;41157;53.560;10.098;2023-09-08T09:16:48;12.05;;;4.88;;
55292;SDS011;41157;53.560;10.098;2023-09-08T09:19:20;6.75;;;4.00;;
55292;SDS011;41157;53.560;10.098;2023-09-08T09:21:52;8.40;;;4.22;;
55292;SDS011;41157;53.560;10.098;2023-09-08T09:24:28;6.53;;;4.20;;
55292;SDS011;41157;53.560;10.098;2023-09-08T09:26:57;8.98;;;4.18;;
55292;SDS011;41157;53.560;10.098;2023-09-08T09:29:24;9.68;;;4.40;;
55292;SDS011;41157;53.560;10.098;2023-09-08T09:31:51;6.88;;;4.22;;
55292;SDS011;41157;53.560;10.098;2023-09-08T09:34:20;4.43;;;3.85;;
55292;SDS011;41157;53.560;10.098;2023-09-08T09:36:47;6.57;;;4.25;;
55292;SDS011;41157;53.560;10.098;2023-09-08T09:39:18;7.93;;;4.55;;
55292;SDS011;41157;53.560;10.098;2023-09-08T09:41:45;21.23;;;4.53;;
55292;SDS011;41157;53.560;10.098;2023-09-08T09:44:14;8.30;;;4.38;;
55292;SDS011;41157;53.560;10.098;2023-09-08T09:46:43;11.18;;;4.40;;
55292;SDS011;41157;53.560;10.098;2023-09-08T09:49:10;7.85;;;4.05;;
55292;SDS011;41157;53.560;10.098;2023-09-08T09:51:40;7.55;;;3.80;;
55292;SDS011;41157;53.560;10.098;2023-09-08T09:54:07;4.80;;;3.50;;
55292;SDS011;41157;53.560;10.098;2023-09-08T09:56:34;8.63;;;3.85;;
55292;SDS011;41157;53.560;10.098;2023-09-08T09:59:03;5.20;;;3.47;;
55292;SDS011;41157;53.560;10.098;2023-09-08T10:01:33;4.25;;;3.60;;
55292;SDS011;41157;53.560;10.098;2023-09-08T10:04:00;7.10;;;4.15;;
55292;SDS011;41157;53.560;10.098;2023-09-08T10:06:28;7.35;;;3.95;;
55292;SDS011;41157;53.560;10.098;2023-09-08T10:08:57;3.97;;;3.58;;
55292;SDS011;41157;53.560;10.098;2023-09-08T10:11:25;10.52;;;3.80;;
55292;SDS011;41157;53.560;10.098;2023-09-08T10:13:57;4.60;;;3.67;;
55292;SDS011;41157;53.560;10.098;2023-09-08T10:16:26;4.90;;;3.50;;
55292;SDS011;41157;53.560;10.098;2023-09-08T10:18:55;7.60;;;3.85;;
55292;SDS011;41157;53.560;10.098;2023-09-08T10:21:24;5.30;;;3.53;;
55292;SDS011;41157;53.560;10.098;2023-09-08T10:23:54;5.50;;;3.92;;
55292;SDS011;41157;53.560;10.098;2023-09-08T10:26:24;6.07;;;3.80;;
55292;SDS011;41157;53.560;10.098;2023-09-08T10:28:53;6.30;;;3.70;;
55292;SDS011;41157;53.560;10.098;2023-09-08T10:31:22;5.10;;;3.80;;
55292;SDS011;41157;53.560;10.098;2023-09-08T10:33:49;5.25;;;3.58;;
55292;SDS011;41157;53.560;10.098;2023-09-08T10:36:17;8.57;;;3.60;;
55292;SDS011;41157;53.560;10.098;2023-09-08T10:38:44;9.80;;;3.38;;
55292;SDS011;41157;53.560;10.098;2023-09-08T10:41:26;7.68;;;3.90;;
55292;SDS011;41157;53.560;10.098;2023-09-08T10:43:56;4.53;;;3.60;;
55292;SDS011;41157;53.560;10.098;2023-09-08T10:46:25;4.20;;;3.80;;
55292;SDS011;41157;53.560;10.098;2023-09-08T10:48:53;4.95;;;3.55;;
55292;SDS011;41157;53.560;10.098;2023-09-08T10:51:21;4.00;;;3.55;;
55292;SDS011;41157;53.560;10.098;2023-09-08T10:53:48;4.07;;;3.35;;
55292;SDS011;41157;53.560;10.098;2023-09-08T10:56:16;5.18;;;3.33;;
55292;SDS011;41157;53.560;10.098;2023-09-08T10:58:43;4.90;;;3.67;;
55292;SDS011;41157;53.560;10.098;2023-09-08T11:01:12;5.00;;;3.63;;
55292;SDS011;41157;53.560;10.098;2023-09-08T11:03:43;8.65;;;3.67;;
55292;SDS011;41157;53.560;10.098;2023-09-08T11:06:12;6.05;;;3.47;;
55292;SDS011;41157;53.560;10.098;2023-09-08T11:08:42;4.30;;;3.45;;
55292;SDS011;41157;53.560;10.098;2023-09-08T11:11:10;5.65;;;3.72;;
55292;SDS011;41157;53.560;10.098;2023-09-08T11:13:37;4.88;;;3.50;;
55292;SDS011;41157;53.560;10.098;2023-09-08T11:16:05;11.68;;;3.60;;
55292;SDS011;41157;53.560;10.098;2023-09-08T11:18:33;6.00;;;3.78;;
55292;SDS011;41157;53.560;10.098;2023-09-08T11:21:01;4.43;;;3.70;;
55292;SDS011;41157;53.560;10.098;2023-09-08T11:23:28;5.80;;;3.78;;
55292;SDS011;41157;53.560;10.098;2023-09-08T11:25:57;5.40;;;3.42;;
55292;SDS011;41157;53.560;10.098;2023-09-08T11:28:26;5.90;;;3.80;;
55292;SDS011;41157;53.560;10.098;2023-09-08T11:30:54;5.50;;;4.25;;
55292;SDS011;41157;53.560;10.098;2023-09-08T11:33:21;4.32;;;3.42;;
55292;SDS011;41157;53.560;10.098;2023-09-08T11:35:50;8.77;;;3.50;;
55292;SDS011;41157;53.560;10.098;2023-09-08T11:38:17;3.55;;;3.25;;
55292;SDS011;41157;53.560;10.098;2023-09-08T11:40:44;5.95;;;3.53;;
55292;SDS011;41157;53.560;10.098;2023-09-08T11:43:13;12.05;;;4.20;;
55292;SDS011;41157;53.560;10.098;2023-09-08T11:45:40;4.47;;;3.47;;
55292;SDS011;41157;53.560;10.098;2023-09-08T11:48:09;6.72;;;3.72;;
55292;SDS011;41157;53.560;10.098;2023-09-08T11:50:36;6.53;;;3.50;;
55292;SDS011;41157;53.560;10.098;2023-09-08T11:53:03;7.18;;;3.95;;
55292;SDS011;41157;53.560;10.098;2023-09-08T11:55:31;11.18;;;3.55;;
55292;SDS011;41157;53.560;10.098;2023-09-08T11:57:58;13.13;;;3.85;;
55292;SDS011;41157;53.560;10.098;2023-09-08T12:00:27;8.55;;;3.88;;
55292;SDS011;41157;53.560;10.098;2023-09-08T12:02:54;7.18;;;3.72;;
55292;SDS011;41157;53.560;10.098;2023-09-08T12:05:22;5.85;;;3.58;;
55292;SDS011;41157;53.560;10.098;2023-09-08T12:07:49;4.82;;;3.47;;
55292;SDS011;41157;53.560;10.098;2023-09-08T12:10:16;3.50;;;3.20;;
55292;SDS011;41157;53.560;10.098;2023-09-08T12:12:44;4.97;;;3.40;;
55292;SDS011;41157;53.560;10.098;2023-09-08T12:15:11;5.07;;;3.83;;
55292;SDS011;41157;53.560;10.098;2023-09-08T12:17:49;6.53;;;3.67;;
55292;SDS011;41157;53.560;10.098;2023-09-08T12:20:16;5.15;;;3.55;;
55292;SDS011;41157;53.560;10.098;2023-09-08T12:22:47;4.35;;;3.30;;
55292;SDS011;41157;53.560;10.098;2023-09-08T12:25:15;6.00;;;3.40;;
55292;SDS011;41157;53.560;10.098;2023-09-08T12:27:42;3.55;;;3.08;;
55292;SDS011;41157;53.560;10.098;2023-09-08T12:30:15;5.38;;;3.60;;
55292;SDS011;41157;53.560;10.098;2023-09-08T12:32:44;8.43;;;4.50;;
55292;SDS011;41157;53.560;10.098;2023-09-08T12:35:13;4.90;;;3.88;;
55292;SDS011;41157;53.560;10.098;2023-09-08T12:37:40;9.20;;;3.58;;
55292;SDS011;41157;53.560;10.098;2023-09-08T12:40:08;4.63;;;3.30;;
55292;SDS011;41157;53.560;10.098;2023-09-08T12:42:35;4.53;;;3.60;;
55292;SDS011;41157;53.560;10.098;2023-09-08T12:45:02;4.68;;;3.50;;
55292;SDS011;41157;53.560;10.098;2023-09-08T12:47:29;3.63;;;3.25;;
55292;SDS011;41157;53.560;10.098;2023-09-08T12:49:56;6.18;;;3.60;;
55292;SDS011;41157;53.560;10.098;2023-09-08T12:52:25;3.85;;;3.42;;
55292;SDS011;41157;53.560;10.098;2023-09-08T12:54:52;3.08;;;2.78;;
55292;SDS011;41157;53.560;10.098;2023-09-08T12:57:21;3.67;;;3.05;;
55292;SDS011;41157;53.560;10.098;2023-09-08T12:59:48;4.63;;;3.05;;
55292;SDS011;41157;53.560;10.098;2023-09-08T13:02:16;3.83;;;3.38;;
55292;SDS011;41157;53.560;10.098;2023-09-08T13:04:43;4.00;;;3.30;;
55292;SDS011;41157;53.560;10.098;2023-09-08T13:07:13;9.02;;;3.50;;
55292;SDS011;41157;53.560;10.098;2023-09-08T13:09:41;3.30;;;3.00;;
55292;SDS011;41157;53.560;10.098;2023-09-08T13:12:08;3.83;;;2.92;;
55292;SDS011;41157;53.560;10.098;2023-09-08T13:14:37;3.85;;;2.90;;
55292;SDS011;41157;53.560;10.098;2023-09-08T13:17:04;4.15;;;3.20;;
55292;SDS011;41157;53.560;10.098;2023-09-08T13:19:31;7.63;;;3.47;;
55292;SDS011;41157;53.560;10.098;2023-09-08T13:21:58;4.95;;;2.92;;
55292;SDS011;41157;53.560;10.098;2023-09-08T13:24:25;5.20;;;2.95;;
55292;SDS011;41157;53.560;10.098;2023-09-08T13:26:54;3.22;;;2.65;;
55292;SDS011;41157;53.560;10.098;2023-09-08T13:29:21;3.28;;;2.97;;
55292;SDS011;41157;53.560;10.098;2023-09-08T13:31:48;5.65;;;2.53;;
55292;SDS011;41157;53.560;10.098;2023-09-08T13:34:15;3.72;;;2.75;;
55292;SDS011;41157;53.560;10.098;2023-09-08T13:36:42;4.68;;;2.78;;
55292;SDS011;41157;53.560;10.098;2023-09-08T13:39:09;4.53;;;3.00;;
55292;SDS011;41157;53.560;10.098;2023-09-08T13:41:45;5.35;;;2.72;;
55292;SDS011;41157;53.560;10.098;2023-09-08T13:44:14;3.53;;;2.83;;
55292;SDS011;41157;53.560;10.098;2023-09-08T13:46:41;6.60;;;3.20;;
55292;SDS011;41157;53.560;10.098;2023-09-08T13:49:08;6.78;;;3.00;;
55292;SDS011;41157;53.560;10.098;2023-09-08T13:51:35;4.47;;;2.72;;
55292;SDS011;41157;53.560;10.098;2023-09-08T13:54:02;5.85;;;3.22;;
55292;SDS011;41157;53.560;10.098;2023-09-08T13:56:29;3.22;;;2.70;;
55292;SDS011;41157;53.560;10.098;2023-09-08T13:58:56;6.00;;;3.47;;
55292;SDS011;41157;53.560;10.098;2023-09-08T14:01:25;4.32;;;3.47;;
55292;SDS011;41157;53.560;10.098;2023-09-08T14:03:53;3.10;;;2.55;;
55292;SDS011;41157;53.560;10.098;2023-09-08T14:06:21;3.53;;;3.05;;
55292;SDS011;41157;53.560;10.098;2023-09-08T14:08:48;5.22;;;3.22;;
55292;SDS011;41157;53.560;10.098;2023-09-08T14:11:15;4.63;;;3.58;;
55292;SDS011;41157;53.560;10.098;2023-09-08T14:13:42;4.65;;;3.40;;
55292;SDS011;41157;53.560;10.098;2023-09-08T14:16:09;8.60;;;3.33;;
55292;SDS011;41157;53.560;10.098;2023-09-08T14:18:37;4.20;;;2.95;;
55292;SDS011;41157;53.560;10.098;2023-09-08T14:21:04;7.65;;;3.47;;
55292;SDS011;41157;53.560;10.098;2023-09-08T14:23:31;4.13;;;2.83;;
55292;SDS011;41157;53.560;10.098;2023-09-08T14:25:59;9.18;;;3.40;;
55292;SDS011;41157;53.560;10.098;2023-09-08T14:28:26;3.92;;;3.15;;
55292;SDS011;41157;53.560;10.098;2023-09-08T14:30:53;3.83;;;2.95;;
55292;SDS011;41157;53.560;10.098;2023-09-08T14:33:20;8.32;;;3.40;;
55292;SDS011;41157;53.560;10.098;2023-09-08T14:35:48;6.70;;;3.50;;
55292;SDS011;41157;53.560;10.098;2023-09-08T14:38:17;5.88;;;4.00;;